createdAt,value
2018-08-20T00:00:07.350Z,12.45
2018-08-20T00:00:45.058Z,12.98
2018-08-20T00:01:23.688Z,12.58
2018-08-20T00:01:57.234Z,12.05
2018-08-20T00:02:37.036Z,13.15
2018-08-20T00:03:10.823Z,11.43
2018-08-20T00:03:48.979Z,11.73
2018-08-20T00:04:22.529Z,12.33
2018-08-20T00:04:59.584Z,11.45
2018-08-20T00:05:36.448Z,11.28
2018-08-20T00:06:09.978Z,12.93
2018-08-20T00:06:54.509Z,12.25
2018-08-20T00:07:28.807Z,11.55
2018-08-20T00:08:02.424Z,16.23
2018-08-20T00:08:36.095Z,12.35
2018-08-20T00:09:09.676Z,12.90
2018-08-20T00:09:46.631Z,14.23
2018-08-20T00:10:20.228Z,13.10
2018-08-20T00:10:56.501Z,11.48
2018-08-20T00:11:30.045Z,15.05
2018-08-20T00:12:04.498Z,10.85
2018-08-20T00:12:38.331Z,11.85
2018-08-20T00:13:13.596Z,12.17
2018-08-20T00:13:47.150Z,11.85
2018-08-20T00:14:22.168Z,12.20
2018-08-20T00:14:55.758Z,12.20
2018-08-20T00:15:29.423Z,14.50
2018-08-20T00:16:03.055Z,11.00
2018-08-20T00:16:36.639Z,15.23
2018-08-20T00:17:10.501Z,13.37
2018-08-20T00:17:44.108Z,13.18
2018-08-20T00:18:22.096Z,11.80
2018-08-20T00:18:55.933Z,13.30
2018-08-20T00:19:29.689Z,16.55
2018-08-20T00:20:03.329Z,13.43
2018-08-20T00:20:36.928Z,12.73
2018-08-20T00:21:10.680Z,12.77
2018-08-20T00:21:45.347Z,16.02
2018-08-20T00:22:19.389Z,15.32
2018-08-20T00:22:52.929Z,16.05
2018-08-20T00:23:27.208Z,14.40
2018-08-20T00:24:00.744Z,14.38
2018-08-20T00:24:34.777Z,14.13
2018-08-20T00:25:15.395Z,15.80
2018-08-20T00:25:49.002Z,13.13
2018-08-20T00:26:23.560Z,16.97
2018-08-20T00:27:00.828Z,14.38
2018-08-20T00:27:34.388Z,13.35
2018-08-20T00:28:08.845Z,14.53
2018-08-20T00:28:42.323Z,14.28
2018-08-20T00:29:16.923Z,13.43
2018-08-20T00:29:50.558Z,13.93
2018-08-20T00:30:24.202Z,14.15
2018-08-20T00:30:58.842Z,15.45
2018-08-20T00:31:32.410Z,14.20
2018-08-20T00:32:06.300Z,16.60
2018-08-20T00:32:41.267Z,16.32
2018-08-20T00:33:15.364Z,14.70
2018-08-20T00:33:49.257Z,14.38
2018-08-20T00:34:23.270Z,13.60
2018-08-20T00:34:56.819Z,15.23
2018-08-20T00:35:31.059Z,16.00
2018-08-20T00:36:05.143Z,14.73
2018-08-20T00:36:38.711Z,14.90
2018-08-20T00:37:12.660Z,17.57
2018-08-20T00:37:48.889Z,18.07
2018-08-20T00:38:22.954Z,15.05
2018-08-20T00:38:56.948Z,14.53
2018-08-20T00:39:30.528Z,16.27
2018-08-20T00:40:04.905Z,16.55
2018-08-20T00:40:38.483Z,15.05
2018-08-20T00:41:12.055Z,14.40
2018-08-20T00:41:46.776Z,16.00
2018-08-20T00:42:20.337Z,14.93
2018-08-20T00:42:53.900Z,15.48
2018-08-20T00:43:27.556Z,15.75
2018-08-20T00:44:01.133Z,15.88
2018-08-20T00:44:35.335Z,15.60
2018-08-20T00:45:09.574Z,14.90
2018-08-20T00:45:43.707Z,18.75
2018-08-20T00:46:17.334Z,17.25
2018-08-20T00:46:50.883Z,17.25
2018-08-20T00:47:24.470Z,16.62
2018-08-20T00:47:58.004Z,16.67
2018-08-20T00:48:31.917Z,16.60
2018-08-20T00:49:05.510Z,16.32
2018-08-20T00:49:39.503Z,15.45
2018-08-20T00:50:13.092Z,19.82
2018-08-20T00:50:47.064Z,19.25
2018-08-20T00:51:20.621Z,16.95
2018-08-20T00:51:54.797Z,16.15
2018-08-20T00:52:28.295Z,18.30
2018-08-20T00:53:02.261Z,17.42
2018-08-20T00:53:35.828Z,15.63
2018-08-20T00:54:09.589Z,17.67
2018-08-20T00:54:43.246Z,15.70
2018-08-20T00:55:16.748Z,15.33
2018-08-20T00:55:50.407Z,16.62
2018-08-20T00:56:24.025Z,16.48
2018-08-20T00:56:58.222Z,16.60
2018-08-20T00:57:31.751Z,20.30
2018-08-20T00:58:05.279Z,16.12
2018-08-20T00:58:38.938Z,16.00
2018-08-20T00:59:12.568Z,16.00
2018-08-20T00:59:46.072Z,17.57
2018-08-20T01:00:19.650Z,17.32
2018-08-20T01:00:53.292Z,17.25
2018-08-20T01:01:27.770Z,18.52
2018-08-20T01:02:01.990Z,20.57
2018-08-20T01:02:35.526Z,15.05
2018-08-20T01:03:09.026Z,16.70
2018-08-20T01:03:42.542Z,16.77
2018-08-20T01:04:16.944Z,16.12
2018-08-20T01:04:50.464Z,17.20
2018-08-20T01:05:24.187Z,16.35
2018-08-20T01:05:57.868Z,14.60
2018-08-20T01:06:31.888Z,17.37
2018-08-20T01:07:05.615Z,14.77
2018-08-20T01:07:39.171Z,19.82
2018-08-20T01:08:12.781Z,16.05
2018-08-20T01:08:46.284Z,16.37
2018-08-20T01:09:19.881Z,17.92
2018-08-20T01:09:53.803Z,14.85
2018-08-20T01:10:28.247Z,14.90
2018-08-20T01:11:01.831Z,17.10
2018-08-20T01:11:35.539Z,20.15
2018-08-20T01:12:09.974Z,17.85
2018-08-20T01:12:43.518Z,19.67
2018-08-20T01:13:17.431Z,19.82
2018-08-20T01:13:50.997Z,19.87
2018-08-20T01:14:24.548Z,20.30
2018-08-20T01:14:58.727Z,20.54
2018-08-20T01:15:32.574Z,19.90
2018-08-20T01:16:06.159Z,18.67
2018-08-20T01:16:39.743Z,16.32
2018-08-20T01:17:13.355Z,19.47
2018-08-20T01:17:46.903Z,21.37
2018-08-20T01:18:20.516Z,19.00
2018-08-20T01:18:54.119Z,19.27
2018-08-20T01:19:27.688Z,18.92
2018-08-20T01:20:01.723Z,18.45
2018-08-20T01:20:35.808Z,17.55
2018-08-20T01:21:10.000Z,15.83
2018-08-20T01:21:43.541Z,20.80
2018-08-20T01:22:17.551Z,15.83
2018-08-20T01:22:51.180Z,17.15
2018-08-20T01:23:25.653Z,16.12
2018-08-20T01:23:59.222Z,18.77
2018-08-20T01:24:33.246Z,16.42
2018-08-20T01:25:07.233Z,18.80
2018-08-20T01:25:40.749Z,20.62
2018-08-20T01:26:14.648Z,18.90
2018-08-20T01:26:48.220Z,14.65
2018-08-20T01:27:28.868Z,16.93
2018-08-20T01:28:03.301Z,16.93
2018-08-20T01:28:36.909Z,14.60
2018-08-20T01:29:10.647Z,18.23
2018-08-20T01:29:44.464Z,14.87
2018-08-20T01:30:18.216Z,19.70
2018-08-20T01:30:51.785Z,17.20
2018-08-20T01:31:25.364Z,15.72
2018-08-20T01:31:59.188Z,18.17
2018-08-20T01:32:32.744Z,17.27
2018-08-20T01:33:11.480Z,16.12
2018-08-20T01:33:45.963Z,17.82
2018-08-20T01:34:19.659Z,14.13
2018-08-20T01:34:53.288Z,21.70
2018-08-20T01:35:27.992Z,16.05
2018-08-20T01:36:01.542Z,18.62
2018-08-20T01:36:35.087Z,18.12
2018-08-20T01:37:09.776Z,19.47
2018-08-20T01:37:43.812Z,19.48
2018-08-20T01:38:17.387Z,18.20
2018-08-20T01:38:50.916Z,15.88
2018-08-20T01:39:24.423Z,14.90
2018-08-20T01:39:58.004Z,16.95
2018-08-20T01:40:31.634Z,20.45
2018-08-20T01:41:05.143Z,17.55
2018-08-20T01:41:38.669Z,17.35
2018-08-20T01:42:12.762Z,18.73
2018-08-20T01:42:46.376Z,16.87
2018-08-20T01:43:19.920Z,16.32
2018-08-20T01:43:53.486Z,17.05
2018-08-20T01:44:26.961Z,16.50
2018-08-20T01:45:00.484Z,19.45
2018-08-20T01:45:34.075Z,18.80
2018-08-20T01:46:07.626Z,16.77
2018-08-20T01:46:41.847Z,17.73
2018-08-20T01:47:15.939Z,20.80
2018-08-20T01:47:49.520Z,18.42
2018-08-20T01:48:23.072Z,19.57
2018-08-20T01:48:56.638Z,16.40
2018-08-20T01:49:30.167Z,21.12
2018-08-20T01:50:03.798Z,23.02
2018-08-20T01:50:37.396Z,17.77
2018-08-20T01:51:10.984Z,15.38
2018-08-20T01:51:44.580Z,14.53
2018-08-20T01:52:18.141Z,18.55
2018-08-20T01:52:52.377Z,20.40
2018-08-20T01:53:25.946Z,19.15
2018-08-20T01:54:00.064Z,16.73
2018-08-20T01:54:34.316Z,24.98
2018-08-20T01:55:07.967Z,16.47
2018-08-20T01:55:41.499Z,15.80
2018-08-20T01:56:15.311Z,18.35
2018-08-20T01:56:49.337Z,17.15
2018-08-20T01:57:22.935Z,18.50
2018-08-20T01:57:56.619Z,19.95
2018-08-20T01:58:30.294Z,19.35
2018-08-20T01:59:04.706Z,16.23
2018-08-20T01:59:39.005Z,17.15
2018-08-20T02:00:12.570Z,17.60
2018-08-20T02:00:46.467Z,18.67
2018-08-20T02:01:20.599Z,14.80
2018-08-20T02:01:54.152Z,21.52
2018-08-20T02:02:28.268Z,17.95
2018-08-20T02:03:02.994Z,17.55
2018-08-20T02:03:37.201Z,16.42
2018-08-20T02:04:10.738Z,17.92
2018-08-20T02:04:44.761Z,16.95
2018-08-20T02:05:18.525Z,19.30
2018-08-20T02:05:52.139Z,18.85
2018-08-20T02:06:26.389Z,19.37
2018-08-20T02:07:00.132Z,20.32
2018-08-20T02:07:33.716Z,20.30
2018-08-20T02:08:07.695Z,15.05
2018-08-20T02:08:41.333Z,16.62
2018-08-20T02:09:14.908Z,15.40
2018-08-20T02:09:48.435Z,15.10
2018-08-20T02:10:22.086Z,16.75
2018-08-20T02:10:55.729Z,16.55
2018-08-20T02:11:29.317Z,14.73
2018-08-20T02:12:02.960Z,17.60
2018-08-20T02:12:36.640Z,14.13
2018-08-20T02:13:10.244Z,20.32
2018-08-20T02:13:44.015Z,17.42
2018-08-20T02:14:17.680Z,13.50
2018-08-20T02:14:51.685Z,15.03
2018-08-20T02:15:25.620Z,17.95
2018-08-20T02:15:59.287Z,15.78
2018-08-20T02:16:32.832Z,15.55
2018-08-20T02:17:06.789Z,18.50
2018-08-20T02:17:40.374Z,17.27
2018-08-20T02:18:14.241Z,16.70
2018-08-20T02:18:47.779Z,15.10
2018-08-20T02:19:21.331Z,17.55
2018-08-20T02:19:54.940Z,17.35
2018-08-20T02:20:29.111Z,16.12
2018-08-20T02:21:02.744Z,13.98
2018-08-20T02:21:36.441Z,19.42
2018-08-20T02:22:10.035Z,17.02
2018-08-20T02:22:44.122Z,14.43
2018-08-20T02:23:17.688Z,14.83
2018-08-20T02:23:52.253Z,18.92
2018-08-20T02:24:26.331Z,18.12
2018-08-20T02:25:00.001Z,19.25
2018-08-20T02:25:33.645Z,16.25
2018-08-20T02:26:07.433Z,21.23
2018-08-20T02:26:40.964Z,16.97
2018-08-20T02:27:14.571Z,11.43
2018-08-20T02:27:48.094Z,16.77
2018-08-20T02:28:22.258Z,16.23
2018-08-20T02:28:55.828Z,15.90
2018-08-20T02:29:29.354Z,14.68
2018-08-20T02:30:03.550Z,14.98
2018-08-20T02:30:37.073Z,15.63
2018-08-20T02:31:10.716Z,17.10
2018-08-20T02:31:44.280Z,14.33
2018-08-20T02:32:17.879Z,13.85
2018-08-20T02:32:51.411Z,12.47
2018-08-20T02:33:25.406Z,13.18
2018-08-20T02:33:59.036Z,14.85
2018-08-20T02:34:33.042Z,13.45
2018-08-20T02:35:07.374Z,14.50
2018-08-20T02:35:41.440Z,13.93
2018-08-20T02:36:15.058Z,17.30
2018-08-20T02:36:48.632Z,15.48
2018-08-20T02:37:22.212Z,14.23
2018-08-20T02:37:56.057Z,14.93
2018-08-20T02:38:30.617Z,15.63
2018-08-20T02:39:07.306Z,15.23
2018-08-20T02:39:40.915Z,16.35
2018-08-20T02:40:16.113Z,12.10
2018-08-20T02:40:49.692Z,13.00
2018-08-20T02:41:23.318Z,14.38
2018-08-20T02:41:56.901Z,13.80
2018-08-20T02:42:30.960Z,12.10
2018-08-20T02:43:04.526Z,11.27
2018-08-20T02:43:38.103Z,14.55
2018-08-20T02:44:12.761Z,13.35
2018-08-20T02:44:46.703Z,12.78
2018-08-20T02:45:20.298Z,12.10
2018-08-20T02:45:53.824Z,10.20
2018-08-20T02:46:48.562Z,13.95
2018-08-20T02:47:22.193Z,13.98
2018-08-20T02:47:55.735Z,11.38
2018-08-20T02:48:29.431Z,12.70
2018-08-20T02:49:03.008Z,12.15
2018-08-20T02:49:36.614Z,15.03
2018-08-20T02:50:10.872Z,14.80
2018-08-20T02:50:44.456Z,14.35
2018-08-20T02:51:17.984Z,14.87
2018-08-20T02:51:51.699Z,18.37
2018-08-20T02:52:25.338Z,13.38
2018-08-20T02:52:59.237Z,12.84
2018-08-20T02:53:32.788Z,12.70
2018-08-20T02:54:06.412Z,14.47
2018-08-20T02:54:40.026Z,14.75
2018-08-20T02:55:13.988Z,16.70
2018-08-20T02:55:48.821Z,16.73
2018-08-20T02:56:23.771Z,13.65
2018-08-20T02:56:58.211Z,16.00
2018-08-20T02:57:31.746Z,14.13
2018-08-20T02:58:06.168Z,14.93
2018-08-20T02:58:39.750Z,15.95
2018-08-20T02:59:14.318Z,12.47
2018-08-20T02:59:47.836Z,15.03
2018-08-20T03:00:21.438Z,16.02
2018-08-20T03:00:55.091Z,12.95
2018-08-20T03:01:28.620Z,13.78
2018-08-20T03:02:02.235Z,13.40
2018-08-20T03:02:35.709Z,15.10
2018-08-20T03:03:09.571Z,15.93
2018-08-20T03:03:43.946Z,13.90
2018-08-20T03:04:17.487Z,18.67
2018-08-20T03:04:52.569Z,15.45
2018-08-20T03:05:26.143Z,16.35
2018-08-20T03:05:59.703Z,15.68
2018-08-20T03:06:33.269Z,14.30
2018-08-20T03:07:06.882Z,15.87
2018-08-20T03:07:40.628Z,13.85
2018-08-20T03:08:14.276Z,16.27
2018-08-20T03:08:47.819Z,15.58
2018-08-20T03:09:21.471Z,14.47
2018-08-20T03:09:55.018Z,15.38
2018-08-20T03:10:28.573Z,14.35
2018-08-20T03:11:02.065Z,17.23
2018-08-20T03:11:35.695Z,14.63
2018-08-20T03:12:09.358Z,15.55
2018-08-20T03:12:43.077Z,14.90
2018-08-20T03:13:16.851Z,13.78
2018-08-20T03:13:50.365Z,12.40
2018-08-20T03:14:24.928Z,14.03
2018-08-20T03:14:59.842Z,13.30
2018-08-20T03:15:34.986Z,15.28
2018-08-20T03:16:08.565Z,13.28
2018-08-20T03:16:42.165Z,13.15
2018-08-20T03:17:15.746Z,13.10
2018-08-20T03:17:49.340Z,13.93
2018-08-20T03:18:22.842Z,13.00
2018-08-20T03:18:56.386Z,12.95
2018-08-20T03:19:29.912Z,12.43
2018-08-20T03:20:03.979Z,13.10
2018-08-20T03:20:37.536Z,12.50
2018-08-20T03:21:11.392Z,12.27
2018-08-20T03:21:45.029Z,13.53
2018-08-20T03:22:18.564Z,13.58
2018-08-20T03:22:52.158Z,13.45
2018-08-20T03:23:25.717Z,13.08
2018-08-20T03:23:59.850Z,11.50
2018-08-20T03:24:34.389Z,15.60
2018-08-20T03:25:08.438Z,12.27
2018-08-20T03:25:42.023Z,12.65
2018-08-20T03:26:15.612Z,11.65
2018-08-20T03:26:49.194Z,13.62
2018-08-20T03:27:22.816Z,13.38
2018-08-20T03:27:57.297Z,12.37
2018-08-20T03:28:30.859Z,12.63
2018-08-20T03:29:04.454Z,12.47
2018-08-20T03:29:38.668Z,13.75
2018-08-20T03:30:12.364Z,13.50
2018-08-20T03:30:45.905Z,13.55
2018-08-20T03:31:19.439Z,12.40
2018-08-20T03:31:53.107Z,12.03
2018-08-20T03:32:26.655Z,14.50
2018-08-20T03:33:00.172Z,12.40
2018-08-20T03:33:33.884Z,13.68
2018-08-20T03:34:07.570Z,14.03
2018-08-20T03:34:41.140Z,11.78
2018-08-20T03:35:15.364Z,12.93
2018-08-20T03:35:48.930Z,12.45
2018-08-20T03:36:22.557Z,11.80
2018-08-20T03:36:56.176Z,15.60
2018-08-20T03:37:29.734Z,15.53
2018-08-20T03:38:03.831Z,12.95
2018-08-20T03:38:37.368Z,11.75
2018-08-20T03:39:11.021Z,12.03
2018-08-20T03:39:45.341Z,11.95
2018-08-20T03:40:18.895Z,12.13
2018-08-20T03:40:52.448Z,12.07
2018-08-20T03:41:26.585Z,12.88
2018-08-20T03:42:00.147Z,12.15
2018-08-20T03:42:33.738Z,12.03
2018-08-20T03:43:07.344Z,12.67
2018-08-20T03:43:40.900Z,13.58
2018-08-20T03:44:14.432Z,13.53
2018-08-20T03:44:49.175Z,13.43
2018-08-20T03:45:22.755Z,14.05
2018-08-20T03:45:56.432Z,10.80
2018-08-20T03:46:30.026Z,11.68
2018-08-20T03:47:03.695Z,12.33
2018-08-20T03:47:37.261Z,11.45
2018-08-20T03:48:10.849Z,13.15
2018-08-20T03:48:44.408Z,14.45
2018-08-20T03:49:17.962Z,11.00
2018-08-20T03:49:51.928Z,10.55
2018-08-20T03:50:25.490Z,12.18
2018-08-20T03:50:59.252Z,12.38
2018-08-20T03:51:32.839Z,12.40
2018-08-20T03:52:06.593Z,13.70
2018-08-20T03:52:40.225Z,12.73
2018-08-20T03:53:13.806Z,13.33
2018-08-20T03:53:47.422Z,12.03
2018-08-20T03:54:21.023Z,14.00
2018-08-20T03:54:54.568Z,14.18
2018-08-20T03:55:28.347Z,13.30
2018-08-20T03:56:01.982Z,12.37
2018-08-20T03:56:35.574Z,15.58
2018-08-20T03:57:09.196Z,15.23
2018-08-20T03:57:42.754Z,12.10
2018-08-20T03:58:16.383Z,12.53
2018-08-20T03:58:49.956Z,13.65
2018-08-20T03:59:35.180Z,14.20
2018-08-20T04:00:10.350Z,14.35
2018-08-20T04:00:44.251Z,12.00
2018-08-20T04:01:17.826Z,15.30
2018-08-20T04:01:51.875Z,13.28
2018-08-20T04:02:25.800Z,15.30
2018-08-20T04:02:59.340Z,14.38
2018-08-20T04:03:33.208Z,12.30
2018-08-20T04:04:06.808Z,12.58
2018-08-20T04:04:40.348Z,16.27
2018-08-20T04:05:15.180Z,13.60
2018-08-20T04:05:48.752Z,15.23
2018-08-20T04:06:22.324Z,14.40
2018-08-20T04:06:55.832Z,12.78
2018-08-20T04:07:29.377Z,12.07
2018-08-20T04:08:02.920Z,12.75
2018-08-20T04:08:36.444Z,15.08
2018-08-20T04:09:10.000Z,15.03
2018-08-20T04:09:43.559Z,12.30
2018-08-20T04:10:17.129Z,10.48
2018-08-20T04:10:50.685Z,13.05
2018-08-20T04:11:24.265Z,10.65
2018-08-20T04:11:58.161Z,14.40
2018-08-20T04:12:31.692Z,11.57
2018-08-20T04:13:05.323Z,11.53
2018-08-20T04:13:38.843Z,12.78
2018-08-20T04:14:12.376Z,11.33
2018-08-20T04:14:45.941Z,13.38
2018-08-20T04:15:19.492Z,13.95
2018-08-20T04:15:53.272Z,13.75
2018-08-20T04:16:26.807Z,19.48
2018-08-20T04:17:00.642Z,11.63
2018-08-20T04:17:34.240Z,11.88
2018-08-20T04:18:07.836Z,13.38
2018-08-20T04:18:41.442Z,13.62
2018-08-20T04:19:15.805Z,13.80
2018-08-20T04:19:50.050Z,10.63
2018-08-20T04:20:24.242Z,10.48
2018-08-20T04:20:57.840Z,12.30
2018-08-20T04:21:31.365Z,12.73
2018-08-20T04:22:04.991Z,9.18
2018-08-20T04:22:38.531Z,10.00
2018-08-20T04:23:12.096Z,9.90
2018-08-20T04:23:45.665Z,9.28
2018-08-20T04:24:20.234Z,9.28
2018-08-20T04:24:53.811Z,11.03
2018-08-20T04:25:27.369Z,10.05
2018-08-20T04:26:00.950Z,9.35
2018-08-20T04:26:34.469Z,9.15
2018-08-20T04:27:09.002Z,10.97
2018-08-20T04:27:42.513Z,10.55
2018-08-20T04:28:16.040Z,12.95
2018-08-20T04:28:49.640Z,11.38
2018-08-20T04:29:23.232Z,11.38
2018-08-20T04:29:56.895Z,9.15
2018-08-20T04:30:30.472Z,9.70
2018-08-20T04:31:04.024Z,10.25
2018-08-20T04:31:37.685Z,10.35
2018-08-20T04:32:11.269Z,12.25
2018-08-20T04:32:44.826Z,9.13
2018-08-20T04:33:18.342Z,9.73
2018-08-20T04:33:52.782Z,9.00
2018-08-20T04:34:27.142Z,9.05
2018-08-20T04:35:00.672Z,7.67
2018-08-20T04:35:34.399Z,7.65
2018-08-20T04:36:08.183Z,9.80
2018-08-20T04:36:41.713Z,9.23
2018-08-20T04:37:15.228Z,9.70
2018-08-20T04:37:48.845Z,9.28
2018-08-20T04:38:23.024Z,9.03
2018-08-20T04:38:56.612Z,12.35
2018-08-20T04:39:30.116Z,12.03
2018-08-20T04:40:04.844Z,13.70
2018-08-20T04:40:39.028Z,12.50
2018-08-20T04:41:12.589Z,14.23
2018-08-20T04:41:46.138Z,14.75
2018-08-20T04:42:19.771Z,13.20
2018-08-20T04:42:53.365Z,14.28
2018-08-20T04:43:26.957Z,17.15
2018-08-20T04:44:00.735Z,20.37
2018-08-20T04:44:35.059Z,16.85
2018-08-20T04:45:09.476Z,18.97
2018-08-20T04:45:43.044Z,17.32
2018-08-20T04:46:17.215Z,20.57
2018-08-20T04:46:50.800Z,16.32
2018-08-20T04:47:24.360Z,18.37
2018-08-20T04:47:57.926Z,19.07
2018-08-20T04:48:31.515Z,15.10
2018-08-20T04:49:05.146Z,16.93
2018-08-20T04:49:38.724Z,13.65
2018-08-20T04:50:13.247Z,14.73
2018-08-20T04:50:46.799Z,14.93
2018-08-20T04:51:20.749Z,14.28
2018-08-20T04:51:54.141Z,13.18
2018-08-20T04:52:28.496Z,13.85
2018-08-20T04:53:02.882Z,13.22
2018-08-20T04:53:36.478Z,11.95
2018-08-20T04:54:10.142Z,14.28
2018-08-20T04:54:44.336Z,12.58
2018-08-20T04:55:17.880Z,12.77
2018-08-20T04:55:51.455Z,10.18
2018-08-20T04:56:25.695Z,14.53
2018-08-20T04:56:59.673Z,13.18
2018-08-20T04:57:33.252Z,12.30
2018-08-20T04:58:06.761Z,11.57
2018-08-20T04:58:40.787Z,13.65
2018-08-20T04:59:14.328Z,14.07
2018-08-20T04:59:49.054Z,11.35
2018-08-20T05:00:22.667Z,10.68
2018-08-20T05:00:56.293Z,12.75
2018-08-20T05:01:29.841Z,11.15
2018-08-20T05:02:03.500Z,13.32
2018-08-20T05:02:37.068Z,12.35
2018-08-20T05:03:14.924Z,10.97
2018-08-20T05:03:49.113Z,13.18
2018-08-20T05:04:22.643Z,13.38
2018-08-20T05:04:56.186Z,13.95
2018-08-20T05:05:29.991Z,13.22
2018-08-20T05:06:03.605Z,11.68
2018-08-20T05:06:37.223Z,11.68
2018-08-20T05:07:11.412Z,10.67
2018-08-20T05:07:44.981Z,13.88
2018-08-20T05:08:18.594Z,10.82
2018-08-20T05:08:52.164Z,10.75
2018-08-20T05:09:25.669Z,11.12
2018-08-20T05:09:59.567Z,10.23
2018-08-20T05:10:33.083Z,9.13
2018-08-20T05:11:06.737Z,10.00
2018-08-20T05:11:40.233Z,7.75
2018-08-20T05:12:13.947Z,8.48
2018-08-20T05:12:47.484Z,6.92
2018-08-20T05:13:21.695Z,9.25
2018-08-20T05:13:55.517Z,6.53
2018-08-20T05:14:29.026Z,6.72
2018-08-20T05:15:02.621Z,6.62
2018-08-20T05:15:36.201Z,7.35
2018-08-20T05:16:09.798Z,8.23
2018-08-20T05:16:43.329Z,7.20
2018-08-20T05:17:16.875Z,6.70
2018-08-20T05:17:50.503Z,7.72
2018-08-20T05:18:24.508Z,7.08
2018-08-20T05:18:58.971Z,7.83
2018-08-20T05:19:32.545Z,6.55
2018-08-20T05:20:07.277Z,5.83
2018-08-20T05:20:40.818Z,8.95
2018-08-20T05:21:14.324Z,6.92
2018-08-20T05:21:47.877Z,6.87
2018-08-20T05:22:21.425Z,4.08
2018-08-20T05:22:55.004Z,6.05
2018-08-20T05:23:28.870Z,5.55
2018-08-20T05:24:02.440Z,5.05
2018-08-20T05:24:37.205Z,7.10
2018-08-20T05:25:11.362Z,5.47
2018-08-20T05:25:44.882Z,5.53
2018-08-20T05:26:18.856Z,4.37
2018-08-20T05:26:52.401Z,5.97
2018-08-20T05:27:25.969Z,5.47
2018-08-20T05:28:00.223Z,5.90
2018-08-20T05:28:33.772Z,5.75
2018-08-20T05:29:07.634Z,8.00
2018-08-20T05:29:41.214Z,6.60
2018-08-20T05:30:14.717Z,8.10
2018-08-20T05:30:48.310Z,5.67
2018-08-20T05:31:21.835Z,8.65
2018-08-20T05:31:56.129Z,9.53
2018-08-20T05:32:29.869Z,6.75
2018-08-20T05:33:04.197Z,10.45
2018-08-20T05:33:37.751Z,7.40
2018-08-20T05:34:12.100Z,7.20
2018-08-20T05:34:45.692Z,10.08
2018-08-20T05:35:19.908Z,9.33
2018-08-20T05:35:53.468Z,6.67
2018-08-20T05:36:27.026Z,4.95
2018-08-20T05:37:01.085Z,6.75
2018-08-20T05:37:34.696Z,6.28
2018-08-20T05:38:08.976Z,9.70
2018-08-20T05:38:42.729Z,7.72
2018-08-20T05:39:16.223Z,10.45
2018-08-20T05:39:50.295Z,9.45
2018-08-20T05:40:23.873Z,10.15
2018-08-20T05:40:57.428Z,6.10
2018-08-20T05:41:30.988Z,8.03
2018-08-20T05:42:04.880Z,8.85
2018-08-20T05:42:38.428Z,10.50
2018-08-20T05:43:11.915Z,6.53
2018-08-20T05:43:45.537Z,9.25
2018-08-20T05:44:20.833Z,8.80
2018-08-20T05:44:55.257Z,6.78
2018-08-20T05:45:28.815Z,9.55
2018-08-20T05:46:02.547Z,6.60
2018-08-20T05:46:36.391Z,7.37
2018-08-20T05:47:10.007Z,7.63
2018-08-20T05:47:43.534Z,7.58
2018-08-20T05:48:17.619Z,8.90
2018-08-20T05:48:51.344Z,7.12
2018-08-20T05:49:25.021Z,7.85
2018-08-20T05:49:59.090Z,7.60
2018-08-20T05:50:32.719Z,8.35
2018-08-20T05:51:06.342Z,6.37
2018-08-20T05:51:39.930Z,8.83
2018-08-20T05:52:13.422Z,10.63
2018-08-20T05:52:46.984Z,8.80
2018-08-20T05:53:21.227Z,6.65
2018-08-20T05:53:54.724Z,7.87
2018-08-20T05:54:28.383Z,11.95
2018-08-20T05:55:02.283Z,9.70
2018-08-20T05:55:36.564Z,6.00
2018-08-20T05:56:10.076Z,7.70
2018-08-20T05:56:43.654Z,7.30
2018-08-20T05:57:17.279Z,10.83
2018-08-20T05:57:50.845Z,8.48
2018-08-20T05:58:25.163Z,8.98
2018-08-20T05:58:59.440Z,10.64
2018-08-20T05:59:33.031Z,9.55
2018-08-20T06:00:12.251Z,7.50
2018-08-20T06:00:45.887Z,8.05
2018-08-20T06:01:19.891Z,8.93
2018-08-20T06:01:53.507Z,10.45
2018-08-20T06:02:27.378Z,6.17
2018-08-20T06:03:00.986Z,7.40
2018-08-20T06:03:34.685Z,10.32
2018-08-20T06:04:08.914Z,8.60
2018-08-20T06:04:42.580Z,7.03
2018-08-20T06:05:16.140Z,13.20
2018-08-20T06:05:49.711Z,7.78
2018-08-20T06:06:23.277Z,6.85
2018-08-20T06:06:56.857Z,8.33
2018-08-20T06:07:30.409Z,9.53
2018-08-20T06:08:05.372Z,8.88
2018-08-20T06:08:39.554Z,7.90
2018-08-20T06:09:13.134Z,8.07
2018-08-20T06:09:49.295Z,7.10
2018-08-20T06:10:22.860Z,7.95
2018-08-20T06:10:56.416Z,9.30
2018-08-20T06:11:31.845Z,7.75
2018-08-20T06:12:05.477Z,8.95
2018-08-20T06:12:39.845Z,9.43
2018-08-20T06:13:14.381Z,7.33
2018-08-20T06:13:47.965Z,6.87
2018-08-20T06:14:22.284Z,8.93
2018-08-20T06:14:55.886Z,7.10
2018-08-20T06:15:29.593Z,8.48
2018-08-20T06:16:03.193Z,7.37
2018-08-20T06:16:36.808Z,9.85
2018-08-20T06:17:10.350Z,8.13
2018-08-20T06:17:43.893Z,7.97
2018-08-20T06:18:18.052Z,9.00
2018-08-20T06:18:51.636Z,8.30
2018-08-20T06:19:25.873Z,10.05
2018-08-20T06:19:59.367Z,8.28
2018-08-20T06:20:34.240Z,9.53
2018-08-20T06:21:07.840Z,8.63
2018-08-20T06:21:43.078Z,8.03
2018-08-20T06:22:16.661Z,8.78
2018-08-20T06:22:50.231Z,8.15
2018-08-20T06:23:24.640Z,8.83
2018-08-20T06:23:58.178Z,8.00
2018-08-20T06:24:31.705Z,9.45
2018-08-20T06:25:07.160Z,9.77
2018-08-20T06:25:40.652Z,7.80
2018-08-20T06:26:14.652Z,9.28
2018-08-20T06:26:48.224Z,10.55
2018-08-20T06:27:21.810Z,14.43
2018-08-20T06:27:55.403Z,12.05
2018-08-20T06:28:29.015Z,14.98
2018-08-20T06:29:03.560Z,17.80
2018-08-20T06:29:44.678Z,14.30
2018-08-20T06:30:20.822Z,6.83
2018-08-20T06:30:54.583Z,15.72
2018-08-20T06:31:28.242Z,9.53
2018-08-20T06:32:01.987Z,10.93
2018-08-20T06:32:36.145Z,9.60
2018-08-20T06:33:10.503Z,10.40
2018-08-20T06:33:44.095Z,9.63
2018-08-20T06:34:18.469Z,10.82
2018-08-20T06:34:52.109Z,10.05
2018-08-20T06:35:25.624Z,13.00
2018-08-20T06:35:59.182Z,16.87
2018-08-20T06:36:32.757Z,9.38
2018-08-20T06:37:06.621Z,9.07
2018-08-20T06:37:40.318Z,7.75
2018-08-20T06:38:13.864Z,8.30
2018-08-20T06:38:47.968Z,10.20
2018-08-20T06:39:21.632Z,12.10
2018-08-20T06:39:55.189Z,7.10
2018-08-20T06:40:30.590Z,7.70
2018-08-20T06:41:04.238Z,9.75
2018-08-20T06:41:37.813Z,10.98
2018-08-20T06:42:11.332Z,10.08
2018-08-20T06:42:44.896Z,10.23
2018-08-20T06:43:18.417Z,9.30
2018-08-20T06:43:51.974Z,8.90
2018-08-20T06:44:25.546Z,20.32
2018-08-20T06:44:59.915Z,45.38
2018-08-20T06:45:33.550Z,23.65
2018-08-20T06:46:07.868Z,20.00
2018-08-20T06:46:41.412Z,28.73
2018-08-20T06:47:15.006Z,20.90
2018-08-20T06:47:48.687Z,13.62
2018-08-20T06:48:23.336Z,13.03
2018-08-20T06:48:57.598Z,13.65
2018-08-20T06:49:32.769Z,11.75
2018-08-20T06:50:07.379Z,13.90
2018-08-20T06:50:42.073Z,11.75
2018-08-20T06:51:16.112Z,13.23
2018-08-20T06:51:50.668Z,11.35
2018-08-20T06:52:24.701Z,30.08
2018-08-20T06:52:59.071Z,17.73
2018-08-20T06:53:34.128Z,17.02
2018-08-20T06:54:07.948Z,9.63
2018-08-20T06:54:41.509Z,11.40
2018-08-20T06:55:16.019Z,12.13
2018-08-20T06:55:50.308Z,11.43
2018-08-20T06:56:24.476Z,13.70
2018-08-20T06:56:58.817Z,12.28
2018-08-20T06:57:32.441Z,25.80
2018-08-20T06:58:05.987Z,46.80
2018-08-20T06:58:39.508Z,28.55
2018-08-20T06:59:13.092Z,29.73
2018-08-20T06:59:46.662Z,38.88
2018-08-20T07:00:20.215Z,23.38
2018-08-20T07:00:53.801Z,18.10
2018-08-20T07:01:27.393Z,18.20
2018-08-20T07:02:01.035Z,16.87
2018-08-20T07:02:34.578Z,11.15
2018-08-20T07:03:08.162Z,43.90
2018-08-20T07:03:41.879Z,16.00
2018-08-20T07:04:15.955Z,32.58
2018-08-20T07:04:49.518Z,29.85
2018-08-20T07:05:23.131Z,21.30
2018-08-20T07:05:56.656Z,13.75
2018-08-20T07:06:30.313Z,10.60
2018-08-20T07:07:03.976Z,10.15
2018-08-20T07:07:39.479Z,13.15
2018-08-20T07:08:13.145Z,11.18
2018-08-20T07:08:46.688Z,9.30
2018-08-20T07:09:20.247Z,10.80
2018-08-20T07:09:54.572Z,10.08
2018-08-20T07:10:32.431Z,11.73
2018-08-20T07:11:05.991Z,9.23
2018-08-20T07:11:39.790Z,13.95
2018-08-20T07:12:13.442Z,9.60
2018-08-20T07:12:47.075Z,10.93
2018-08-20T07:13:27.442Z,11.15
2018-08-20T07:14:02.052Z,10.23
2018-08-20T07:14:35.772Z,12.07
2018-08-20T07:15:11.810Z,9.95
2018-08-20T07:15:45.387Z,9.65
2018-08-20T07:16:19.636Z,13.65
2018-08-20T07:16:53.350Z,12.33
2018-08-20T07:17:27.591Z,8.90
2018-08-20T07:18:01.917Z,10.43
2018-08-20T07:18:35.677Z,11.22
2018-08-20T07:19:09.358Z,11.65
2018-08-20T07:19:43.772Z,13.05
2018-08-20T07:20:17.459Z,13.68